Station Historical Data
Daily Summary for July 30, 2017 Units:  Both    English   Metric
« Previous Day
Next Day »
Daily Weekly Monthly Yearly Custom
  High: Low: Average:
Temperature: 85.9 °F /  29.9 °C 60.3 °F /  15.7 °C 73 °F /  22.8 °C
Dew Point: 68.0 °F /  20 °C 57.0 °F /  13.9 °C 62.5 °F /  16.9 °C
Humidity: 90% 42% 71%
Wind Speed: 9.0mph /  14.5km/h - 1.9mph /  3.1km/h
Wind Gust: 11.0mph /  17.7km/h - -
Wind- - WSW
Pressure: 30.09 in /  1018.8 hPa 30.00 in /  1015.8 hPa -
Precipitation: 0.00 in /  0 mm    
Historical Graphs
 
 
Tabular Data for July 30, 2017
Time Temperature Dew Point Pressure Wind Wind Speed Wind Gust Humidity Rainfall Rate (Hourly)
00:04 68.9 °F /  20.5 °C 59.5 °F /  15.3 °C 30.00in /  1015.8hPa NNW 2.0mph /  3.2km/h 3.0mph /  4.8km/h 72% 0.00in /  0mm
00:09 68.8 °F /  20.4 °C 59.4 °F /  15.2 °C 30.00in /  1015.8hPa Calm   3.0mph /  4.8km/h 72% 0.00in /  0mm
00:14 68.7 °F /  20.4 °C 59.3 °F /  15.2 °C 30.00in /  1015.8hPa Calm   3.0mph /  4.8km/h 72% 0.00in /  0mm
00:19 68.5 °F /  20.3 °C 59.1 °F /  15.1 °C 30.00in /  1015.8hPa Calm   3.0mph /  4.8km/h 72% 0.00in /  0mm
00:24 68.4 °F /  20.2 °C 59.0 °F /  15 °C 30.00in /  1015.8hPa Calm   1.0mph /  1.6km/h 72% 0.00in /  0mm
00:29 68.2 °F /  20.1 °C 59.2 °F /  15.1 °C 30.00in /  1015.8hPa Calm     73% 0.00in /  0mm
00:34 68.0 °F /  20 °C 59.0 °F /  15 °C 30.00in /  1015.8hPa Calm     73% 0.00in /  0mm
00:39 67.9 °F /  19.9 °C 59.3 °F /  15.2 °C 30.00in /  1015.8hPa Calm     74% 0.00in /  0mm
00:44 67.6 °F /  19.8 °C 59.0 °F /  15 °C 30.00in /  1015.8hPa Calm     74% 0.00in /  0mm
00:49 67.3 °F /  19.6 °C 59.1 °F /  15.1 °C 30.00in /  1015.8hPa Calm     75% 0.00in /  0mm
00:54 66.9 °F /  19.4 °C 58.7 °F /  14.8 °C 30.00in /  1015.8hPa Calm     75% 0.00in /  0mm
00:59 66.5 °F /  19.2 °C 58.7 °F /  14.8 °C 30.00in /  1015.8hPa Calm     76% 0.00in /  0mm
01:05 66.1 °F /  18.9 °C 58.3 °F /  14.6 °C 30.00in /  1015.8hPa Calm     76% 0.00in /  0mm
01:10 65.8 °F /  18.8 °C 58.4 °F /  14.7 °C 30.00in /  1015.8hPa Calm     77% 0.00in /  0mm
01:15 65.5 °F /  18.6 °C 58.1 °F /  14.5 °C 30.00in /  1015.8hPa Calm     77% 0.00in /  0mm
01:20 65.4 °F /  18.6 °C 58.0 °F /  14.4 °C 30.00in /  1015.8hPa Calm     77% 0.00in /  0mm
01:25 65.1 °F /  18.4 °C 58.1 °F /  14.5 °C 30.00in /  1015.8hPa Calm     78% 0.00in /  0mm
01:30 64.9 °F /  18.3 °C 57.9 °F /  14.4 °C 30.00in /  1015.8hPa Calm     78% 0.00in /  0mm
01:35 64.7 °F /  18.2 °C 57.7 °F /  14.3 °C 30.00in /  1015.8hPa Calm     78% 0.00in /  0mm
01:40 64.4 °F /  18 °C 57.7 °F /  14.3 °C 30.00in /  1015.8hPa Calm     79% 0.00in /  0mm
01:45 64.3 °F /  17.9 °C 58.0 °F /  14.4 °C 30.00in /  1015.8hPa Calm     80% 0.00in /  0mm
01:50 64.2 °F /  17.9 °C 57.9 °F /  14.4 °C 30.00in /  1015.8hPa Calm     80% 0.00in /  0mm
01:55 64.1 °F /  17.8 °C 57.8 °F /  14.3 °C 30.00in /  1015.8hPa Calm     80% 0.00in /  0mm
02:00 63.9 °F /  17.7 °C 58.0 °F /  14.4 °C 30.00in /  1015.8hPa Calm     81% 0.00in /  0mm
02:05 63.8 °F /  17.7 °C 57.9 °F /  14.4 °C 30.00in /  1015.8hPa Calm     81% 0.00in /  0mm
02:10 63.6 °F /  17.6 °C 57.7 °F /  14.3 °C 30.00in /  1015.8hPa Calm     81% 0.00in /  0mm
02:15 63.7 °F /  17.6 °C 57.8 °F /  14.3 °C 30.00in /  1015.8hPa Calm     81% 0.00in /  0mm
02:20 63.9 °F /  17.7 °C 58.3 °F /  14.6 °C 30.00in /  1015.8hPa Calm     82% 0.00in /  0mm
02:25 63.9 °F /  17.7 °C 58.3 °F /  14.6 °C 30.00in /  1015.8hPa Calm     82% 0.00in /  0mm
02:30 63.7 °F /  17.6 °C 57.8 °F /  14.3 °C 30.00in /  1015.8hPa Calm     81% 0.00in /  0mm
02:35 63.5 °F /  17.5 °C 57.9 °F /  14.4 °C 30.00in /  1015.8hPa Calm     82% 0.00in /  0mm
02:40 63.3 °F /  17.4 °C 58.0 °F /  14.4 °C 30.00in /  1015.8hPa Calm     83% 0.00in /  0mm
02:45 63.0 °F /  17.2 °C 57.8 °F /  14.3 °C 30.00in /  1015.8hPa Calm     83% 0.00in /  0mm
02:50 62.9 °F /  17.2 °C 58.0 °F /  14.4 °C 30.00in /  1015.8hPa Calm     84% 0.00in /  0mm
02:55 62.7 °F /  17.1 °C 57.8 °F /  14.3 °C 30.00in /  1015.8hPa Calm     84% 0.00in /  0mm
03:00 62.6 °F /  17 °C 57.7 °F /  14.3 °C 30.00in /  1015.8hPa Calm     84% 0.00in /  0mm
03:05 62.5 °F /  16.9 °C 57.6 °F /  14.2 °C 30.00in /  1015.8hPa Calm     84% 0.00in /  0mm
03:15 62.3 °F /  16.8 °C 57.7 °F /  14.3 °C 30.00in /  1015.8hPa Calm     85% 0.00in /  0mm
03:20 62.3 °F /  16.8 °C 57.7 °F /  14.3 °C 30.00in /  1015.8hPa Calm     85% 0.00in /  0mm
03:25 62.3 °F /  16.8 °C 57.7 °F /  14.3 °C 30.00in /  1015.8hPa Calm     85% 0.00in /  0mm
03:30 62.3 °F /  16.8 °C 57.7 °F /  14.3 °C 30.00in /  1015.8hPa Calm     85% 0.00in /  0mm
03:35 62.1 °F /  16.7 °C 57.5 °F /  14.2 °C 30.00in /  1015.8hPa Calm     85% 0.00in /  0mm
03:40 62.0 °F /  16.7 °C 57.4 °F /  14.1 °C 30.00in /  1015.8hPa Calm     85% 0.00in /  0mm
03:45 61.9 °F /  16.6 °C 57.7 °F /  14.3 °C 30.00in /  1015.8hPa Calm     86% 0.00in /  0mm
03:50 61.8 °F /  16.6 °C 57.6 °F /  14.2 °C 30.00in /  1015.8hPa Calm     86% 0.00in /  0mm
03:55 61.7 °F /  16.5 °C 57.5 °F /  14.2 °C 30.00in /  1015.8hPa Calm     86% 0.00in /  0mm
04:00 61.6 °F /  16.4 °C 57.4 °F /  14.1 °C 30.00in /  1015.8hPa Calm     86% 0.00in /  0mm
04:05 61.6 °F /  16.4 °C 57.4 °F /  14.1 °C 30.00in /  1015.8hPa Calm     86% 0.00in /  0mm
04:10 61.4 °F /  16.3 °C 57.2 °F /  14 °C 30.00in /  1015.8hPa Calm     86% 0.00in /  0mm
04:15 61.4 °F /  16.3 °C 57.2 °F /  14 °C 30.00in /  1015.8hPa Calm     86% 0.00in /  0mm
04:20 61.4 °F /  16.3 °C 57.2 °F /  14 °C 30.01in /  1016.1hPa Calm     86% 0.00in /  0mm
04:25 61.6 °F /  16.4 °C 57.4 °F /  14.1 °C 30.01in /  1016.1hPa Calm     86% 0.00in /  0mm
04:30 61.6 °F /  16.4 °C 57.4 °F /  14.1 °C 30.01in /  1016.1hPa Calm     86% 0.00in /  0mm
04:35 61.4 °F /  16.3 °C 57.2 °F /  14 °C 30.01in /  1016.1hPa Calm     86% 0.00in /  0mm
04:40 61.3 °F /  16.3 °C 57.1 °F /  13.9 °C 30.01in /  1016.1hPa Calm     86% 0.00in /  0mm
04:45 61.4 °F /  16.3 °C 57.5 °F /  14.2 °C 30.01in /  1016.1hPa Calm     87% 0.00in /  0mm
04:50 61.4 °F /  16.3 °C 57.5 °F /  14.2 °C 30.01in /  1016.1hPa Calm     87% 0.00in /  0mm
04:55 61.3 °F /  16.3 °C 57.4 °F /  14.1 °C 30.01in /  1016.1hPa Calm     87% 0.00in /  0mm
05:00 61.3 °F /  16.3 °C 57.7 °F /  14.3 °C 30.01in /  1016.1hPa Calm     88% 0.00in /  0mm
05:05 61.3 °F /  16.3 °C 57.4 °F /  14.1 °C 30.01in /  1016.1hPa Calm     87% 0.00in /  0mm
05:10 61.0 °F /  16.1 °C 57.1 °F /  13.9 °C 30.01in /  1016.1hPa Calm     87% 0.00in /  0mm
05:15 60.9 °F /  16.1 °C 57.3 °F /  14.1 °C 30.02in /  1016.5hPa Calm     88% 0.00in /  0mm
05:20 60.8 °F /  16 °C 57.2 °F /  14 °C 30.02in /  1016.5hPa Calm     88% 0.00in /  0mm
05:25 60.7 °F /  15.9 °C 57.1 °F /  13.9 °C 30.02in /  1016.5hPa Calm     88% 0.00in /  0mm
05:30 60.8 °F /  16 °C 57.5 °F /  14.2 °C 30.02in /  1016.5hPa Calm     89% 0.00in /  0mm
05:35 60.6 °F /  15.9 °C 57.0 °F /  13.9 °C 30.03in /  1016.8hPa Calm     88% 0.00in /  0mm
05:40 60.6 °F /  15.9 °C 57.3 °F /  14.1 °C 30.03in /  1016.8hPa Calm     89% 0.00in /  0mm
05:45 60.5 °F /  15.8 °C 57.2 °F /  14 °C 30.03in /  1016.8hPa Calm     89% 0.00in /  0mm
05:55 60.4 °F /  15.8 °C 57.1 °F /  13.9 °C 30.03in /  1016.8hPa Calm     89% 0.00in /  0mm
06:00 60.3 °F /  15.7 °C 57.0 °F /  13.9 °C 30.03in /  1016.8hPa Calm     89% 0.00in /  0mm
06:05 60.3 °F /  15.7 °C 57.0 °F /  13.9 °C 30.03in /  1016.8hPa Calm     89% 0.00in /  0mm
06:09 60.3 °F /  15.7 °C 57.0 °F /  13.9 °C 30.03in /  1016.8hPa Calm     89% 0.00in /  0mm
06:15 60.3 °F /  15.7 °C 57.4 °F /  14.1 °C 30.03in /  1016.8hPa Calm     90% 0.00in /  0mm
06:20 60.4 °F /  15.8 °C 57.1 °F /  13.9 °C 30.03in /  1016.8hPa Calm     89% 0.00in /  0mm
06:25 60.3 °F /  15.7 °C 57.0 °F /  13.9 °C 30.03in /  1016.8hPa Calm     89% 0.00in /  0mm
06:30 60.4 °F /  15.8 °C 57.1 °F /  13.9 °C 30.03in /  1016.8hPa Calm     89% 0.00in /  0mm
06:35 60.7 °F /  15.9 °C 57.7 °F /  14.3 °C 30.03in /  1016.8hPa Calm     90% 0.00in /  0mm
06:40 60.8 °F /  16 °C 57.5 °F /  14.2 °C 30.03in /  1016.8hPa Calm     89% 0.00in /  0mm
06:45 61.1 °F /  16.2 °C 57.8 °F /  14.3 °C 30.03in /  1016.8hPa Calm     89% 0.00in /  0mm
06:50 61.4 °F /  16.3 °C 58.1 °F /  14.5 °C 30.04in /  1017.2hPa Calm     89% 0.00in /  0mm
06:55 61.7 °F /  16.5 °C 58.4 °F /  14.7 °C 30.04in /  1017.2hPa Calm     89% 0.00in /  0mm
07:00 62.0 °F /  16.7 °C 58.4 °F /  14.7 °C 30.04in /  1017.2hPa Calm     88% 0.00in /  0mm
07:05 62.3 °F /  16.8 °C 58.7 °F /  14.8 °C 30.04in /  1017.2hPa Calm     88% 0.00in /  0mm
07:10 62.9 °F /  17.2 °C 59.0 °F /  15 °C 30.04in /  1017.2hPa Calm     87% 0.00in /  0mm
07:15 63.5 °F /  17.5 °C 59.6 °F /  15.3 °C 30.04in /  1017.2hPa Calm     87% 0.00in /  0mm
07:19 64.2 °F /  17.9 °C 59.9 °F /  15.5 °C 30.04in /  1017.2hPa Calm     86% 0.00in /  0mm
07:25 64.7 °F /  18.2 °C 59.8 °F /  15.4 °C 30.05in /  1017.5hPa Calm     84% 0.00in /  0mm
07:30 65.1 °F /  18.4 °C 60.1 °F /  15.6 °C 30.04in /  1017.2hPa Calm     84% 0.00in /  0mm
07:35 65.5 °F /  18.6 °C 60.2 °F /  15.7 °C 30.05in /  1017.5hPa Calm     83% 0.00in /  0mm
07:39 66.0 °F /  18.9 °C 60.7 °F /  15.9 °C 30.05in /  1017.5hPa Calm     83% 0.00in /  0mm
07:44 66.5 °F /  19.2 °C 60.8 °F /  16 °C 30.05in /  1017.5hPa Calm     82% 0.00in /  0mm
07:50 66.5 °F /  19.2 °C 60.5 °F /  15.8 °C 30.05in /  1017.5hPa Calm     81% 0.00in /  0mm
07:55 66.5 °F /  19.2 °C 60.5 °F /  15.8 °C 30.05in /  1017.5hPa Calm     81% 0.00in /  0mm
08:00 66.5 °F /  19.2 °C 60.8 °F /  16 °C 30.06in /  1017.8hPa Calm     82% 0.00in /  0mm
08:05 66.5 °F /  19.2 °C 60.5 °F /  15.8 °C 30.06in /  1017.8hPa Calm     81% 0.00in /  0mm
08:10 66.5 °F /  19.2 °C 60.8 °F /  16 °C 30.06in /  1017.8hPa Calm     82% 0.00in /  0mm
08:14 66.7 °F /  19.3 °C 60.7 °F /  15.9 °C 30.06in /  1017.8hPa Calm   4.0mph /  6.4km/h 81% 0.00in /  0mm
08:19 66.8 °F /  19.3 °C 60.8 °F /  16 °C 30.06in /  1017.8hPa Calm   4.0mph /  6.4km/h 81% 0.00in /  0mm
08:25 66.9 °F /  19.4 °C 60.9 °F /  16.1 °C 30.06in /  1017.8hPa SSW 1.0mph /  1.6km/h 2.0mph /  3.2km/h 81% 0.00in /  0mm
08:29 67.4 °F /  19.7 °C 61.7 °F /  16.5 °C 30.06in /  1017.8hPa Calm   1.0mph /  1.6km/h 82% 0.00in /  0mm
08:35 68.3 °F /  20.2 °C 61.9 °F /  16.6 °C 30.06in /  1017.8hPa South 1.0mph /  1.6km/h 3.0mph /  4.8km/h 80% 0.00in /  0mm
08:39 68.8 °F /  20.4 °C 62.0 °F /  16.7 °C 30.07in /  1018.2hPa South 3.0mph /  4.8km/h 3.0mph /  4.8km/h 79% 0.00in /  0mm
08:45 68.9 °F /  20.5 °C 61.4 °F /  16.3 °C 30.07in /  1018.2hPa Calm   3.0mph /  4.8km/h 77% 0.00in /  0mm
08:50 69.0 °F /  20.6 °C 61.5 °F /  16.4 °C 30.07in /  1018.2hPa SW 1.0mph /  1.6km/h 4.0mph /  6.4km/h 77% 0.00in /  0mm
08:55 69.3 °F /  20.7 °C 62.1 °F /  16.7 °C 30.07in /  1018.2hPa SW 1.0mph /  1.6km/h 4.0mph /  6.4km/h 78% 0.00in /  0mm
09:00 69.6 °F /  20.9 °C 62.1 °F /  16.7 °C 30.07in /  1018.2hPa SSW 1.0mph /  1.6km/h 4.0mph /  6.4km/h 77% 0.00in /  0mm
09:05 69.9 °F /  21.1 °C 62.0 °F /  16.7 °C 30.07in /  1018.2hPa SSW 1.0mph /  1.6km/h 4.0mph /  6.4km/h 76% 0.00in /  0mm
09:10 70.4 °F /  21.3 °C 62.5 °F /  16.9 °C 30.07in /  1018.2hPa SW 3.0mph /  4.8km/h 4.0mph /  6.4km/h 76% 0.00in /  0mm
09:15 70.8 °F /  21.6 °C 62.5 °F /  16.9 °C 30.07in /  1018.2hPa SW 1.0mph /  1.6km/h 4.0mph /  6.4km/h 75% 0.00in /  0mm
09:20 71.8 °F /  22.1 °C 63.1 °F /  17.3 °C 30.07in /  1018.2hPa SW 2.0mph /  3.2km/h 4.0mph /  6.4km/h 74% 0.00in /  0mm
09:25 72.2 °F /  22.3 °C 62.3 °F /  16.8 °C 30.06in /  1017.8hPa SSW 2.0mph /  3.2km/h 4.0mph /  6.4km/h 71% 0.00in /  0mm
09:29 72.7 °F /  22.6 °C 62.8 °F /  17.1 °C 30.06in /  1017.8hPa SSW 2.0mph /  3.2km/h 4.0mph /  6.4km/h 71% 0.00in /  0mm
09:34 72.3 °F /  22.4 °C 62.4 °F /  16.9 °C 30.06in /  1017.8hPa SW 2.0mph /  3.2km/h 4.0mph /  6.4km/h 71% 0.00in /  0mm
09:40 72.9 °F /  22.7 °C 62.1 °F /  16.7 °C 30.06in /  1017.8hPa Calm   5.0mph /  8km/h 69% 0.00in /  0mm
09:45 73.2 °F /  22.9 °C 62.8 °F /  17.1 °C 30.06in /  1017.8hPa Calm   4.0mph /  6.4km/h 70% 0.00in /  0mm
09:49 73.1 °F /  22.8 °C 62.3 °F /  16.8 °C 30.06in /  1017.8hPa SW 1.0mph /  1.6km/h 5.0mph /  8km/h 69% 0.00in /  0mm
09:54 73.6 °F /  23.1 °C 63.6 °F /  17.6 °C 30.06in /  1017.8hPa SSW 2.0mph /  3.2km/h 5.0mph /  8km/h 71% 0.00in /  0mm
10:00 74.2 °F /  23.4 °C 63.0 °F /  17.2 °C 30.06in /  1017.8hPa SSW 2.0mph /  3.2km/h 5.0mph /  8km/h 68% 0.00in /  0mm
10:05 74.8 °F /  23.8 °C 63.5 °F /  17.5 °C 30.06in /  1017.8hPa SSW 1.0mph /  1.6km/h 4.0mph /  6.4km/h 68% 0.00in /  0mm
10:10 74.9 °F /  23.8 °C 62.8 °F /  17.1 °C 30.06in /  1017.8hPa SW 2.0mph /  3.2km/h 5.0mph /  8km/h 66% 0.00in /  0mm
10:15 75.1 °F /  23.9 °C 63.4 °F /  17.4 °C 30.06in /  1017.8hPa WSW 1.0mph /  1.6km/h 4.0mph /  6.4km/h 67% 0.00in /  0mm
10:20 76.1 °F /  24.5 °C 65.2 °F /  18.4 °C 30.06in /  1017.8hPa SSW 2.0mph /  3.2km/h 4.0mph /  6.4km/h 69% 0.00in /  0mm
10:25 75.9 °F /  24.4 °C 62.8 °F /  17.1 °C 30.07in /  1018.2hPa SW 2.0mph /  3.2km/h 4.0mph /  6.4km/h 64% 0.00in /  0mm
10:29 76.2 °F /  24.6 °C 63.6 °F /  17.6 °C 30.07in /  1018.2hPa WNW 3.0mph /  4.8km/h 5.0mph /  8km/h 65% 0.00in /  0mm
10:35 76.3 °F /  24.6 °C 63.7 °F /  17.6 °C 30.07in /  1018.2hPa SSE 3.0mph /  4.8km/h 5.0mph /  8km/h 65% 0.00in /  0mm
10:39 76.5 °F /  24.7 °C 63.9 °F /  17.7 °C 30.07in /  1018.2hPa SSW 1.0mph /  1.6km/h 5.0mph /  8km/h 65% 0.00in /  0mm
10:44 76.6 °F /  24.8 °C 63.5 °F /  17.5 °C 30.07in /  1018.2hPa SW 5.0mph /  8km/h 6.0mph /  9.7km/h 64% 0.00in /  0mm
10:49 76.8 °F /  24.9 °C 63.7 °F /  17.6 °C 30.06in /  1017.8hPa SW 3.0mph /  4.8km/h 6.0mph /  9.7km/h 64% 0.00in /  0mm
10:55 77.4 °F /  25.2 °C 65.1 °F /  18.4 °C 30.07in /  1018.2hPa WNW 1.0mph /  1.6km/h 6.0mph /  9.7km/h 66% 0.00in /  0mm
11:00 77.3 °F /  25.2 °C 63.7 °F /  17.6 °C 30.07in /  1018.2hPa West 4.0mph /  6.4km/h 7.0mph /  11.3km/h 63% 0.00in /  0mm
11:05 78.2 °F /  25.7 °C 64.6 °F /  18.1 °C 30.07in /  1018.2hPa NW 4.0mph /  6.4km/h 6.0mph /  9.7km/h 63% 0.00in /  0mm
11:10 78.8 °F /  26 °C 64.7 °F /  18.2 °C 30.07in /  1018.2hPa WNW 3.0mph /  4.8km/h 8.0mph /  12.9km/h 62% 0.00in /  0mm
11:15 79.0 °F /  26.1 °C 65.8 °F /  18.8 °C 30.07in /  1018.2hPa WSW 3.0mph /  4.8km/h 6.0mph /  9.7km/h 64% 0.00in /  0mm
11:19 79.7 °F /  26.5 °C 66.0 °F /  18.9 °C 30.07in /  1018.2hPa West 2.0mph /  3.2km/h 6.0mph /  9.7km/h 63% 0.00in /  0mm
11:24 80.0 °F /  26.7 °C 64.9 °F /  18.3 °C 30.07in /  1018.2hPa West 2.0mph /  3.2km/h 8.0mph /  12.9km/h 60% 0.00in /  0mm
11:29 79.1 °F /  26.2 °C 64.0 °F /  17.8 °C 30.07in /  1018.2hPa SW 6.0mph /  9.7km/h 8.0mph /  12.9km/h 60% 0.00in /  0mm
11:34 78.5 °F /  25.8 °C 63.9 °F /  17.7 °C 30.07in /  1018.2hPa WNW 3.0mph /  4.8km/h 6.0mph /  9.7km/h 61% 0.00in /  0mm
11:39 79.4 °F /  26.3 °C 63.8 °F /  17.7 °C 30.07in /  1018.2hPa NW 4.0mph /  6.4km/h 7.0mph /  11.3km/h 59% 0.00in /  0mm
11:44 79.9 °F /  26.6 °C 64.8 °F /  18.2 °C 30.07in /  1018.2hPa West 4.0mph /  6.4km/h 7.0mph /  11.3km/h 60% 0.00in /  0mm
11:49 80.0 °F /  26.7 °C 63.9 °F /  17.7 °C 30.07in /  1018.2hPa West 4.0mph /  6.4km/h 7.0mph /  11.3km/h 58% 0.00in /  0mm
11:55 80.6 °F /  27 °C 65.4 °F /  18.6 °C 30.07in /  1018.2hPa West 4.0mph /  6.4km/h 7.0mph /  11.3km/h 60% 0.00in /  0mm
12:00 81.0 °F /  27.2 °C 64.8 °F /  18.2 °C 30.07in /  1018.2hPa West 3.0mph /  4.8km/h 7.0mph /  11.3km/h 58% 0.00in /  0mm
12:05 80.8 °F /  27.1 °C 65.1 °F /  18.4 °C 30.07in /  1018.2hPa WNW 1.0mph /  1.6km/h 6.0mph /  9.7km/h 59% 0.00in /  0mm
12:10 80.8 °F /  27.1 °C 65.6 °F /  18.7 °C 30.07in /  1018.2hPa WNW 6.0mph /  9.7km/h 8.0mph /  12.9km/h 60% 0.00in /  0mm
12:14 81.2 °F /  27.3 °C 64.5 °F /  18.1 °C 30.07in /  1018.2hPa WNW 3.0mph /  4.8km/h 8.0mph /  12.9km/h 57% 0.00in /  0mm
12:19 81.1 °F /  27.3 °C 64.4 °F /  18 °C 30.07in /  1018.2hPa WNW 3.0mph /  4.8km/h 6.0mph /  9.7km/h 57% 0.00in /  0mm
12:24 81.0 °F /  27.2 °C 64.8 °F /  18.2 °C 30.07in /  1018.2hPa NW 1.0mph /  1.6km/h 5.0mph /  8km/h 58% 0.00in /  0mm
12:29 81.0 °F /  27.2 °C 65.3 °F /  18.5 °C 30.07in /  1018.2hPa West 4.0mph /  6.4km/h 7.0mph /  11.3km/h 59% 0.00in /  0mm
12:34 81.7 °F /  27.6 °C 65.5 °F /  18.6 °C 30.07in /  1018.2hPa West 3.0mph /  4.8km/h 6.0mph /  9.7km/h 58% 0.00in /  0mm
12:39 81.5 °F /  27.5 °C 65.3 °F /  18.5 °C 30.07in /  1018.2hPa WSW 5.0mph /  8km/h 7.0mph /  11.3km/h 58% 0.00in /  0mm
12:44 81.3 °F /  27.4 °C 66.1 °F /  18.9 °C 30.07in /  1018.2hPa SW 4.0mph /  6.4km/h 8.0mph /  12.9km/h 60% 0.00in /  0mm
12:49 81.9 °F /  27.7 °C 67.1 °F /  19.5 °C 30.07in /  1018.2hPa WSW 4.0mph /  6.4km/h 8.0mph /  12.9km/h 61% 0.00in /  0mm
12:55 82.3 °F /  27.9 °C 66.5 °F /  19.2 °C 30.07in /  1018.2hPa West 4.0mph /  6.4km/h 8.0mph /  12.9km/h 59% 0.00in /  0mm
12:59 81.9 °F /  27.7 °C 65.7 °F /  18.7 °C 30.07in /  1018.2hPa SW 5.0mph /  8km/h 8.0mph /  12.9km/h 58% 0.00in /  0mm
13:05 82.2 °F /  27.9 °C 66.4 °F /  19.1 °C 30.07in /  1018.2hPa WSW 9.0mph /  14.5km/h 9.0mph /  14.5km/h 59% 0.00in /  0mm
13:09 81.7 °F /  27.6 °C 67.4 °F /  19.7 °C 30.06in /  1017.8hPa WSW 5.0mph /  8km/h 10.0mph /  16.1km/h 62% 0.00in /  0mm
13:14 82.0 °F /  27.8 °C 66.3 °F /  19.1 °C 30.06in /  1017.8hPa SW 5.0mph /  8km/h 11.0mph /  17.7km/h 59% 0.00in /  0mm
13:19 81.6 °F /  27.6 °C 65.4 °F /  18.6 °C 30.07in /  1018.2hPa SW 6.0mph /  9.7km/h 11.0mph /  17.7km/h 58% 0.00in /  0mm
13:24 81.7 °F /  27.6 °C 66.0 °F /  18.9 °C 30.06in /  1017.8hPa WSW 3.0mph /  4.8km/h 10.0mph /  16.1km/h 59% 0.00in /  0mm
13:29 82.7 °F /  28.2 °C 67.4 °F /  19.7 °C 30.06in /  1017.8hPa WSW 3.0mph /  4.8km/h 8.0mph /  12.9km/h 60% 0.00in /  0mm
13:35 82.9 °F /  28.3 °C 66.1 °F /  18.9 °C 30.06in /  1017.8hPa WSW 4.0mph /  6.4km/h 10.0mph /  16.1km/h 57% 0.00in /  0mm
13:39 81.8 °F /  27.7 °C 66.1 °F /  18.9 °C 30.06in /  1017.8hPa WSW 5.0mph /  8km/h 10.0mph /  16.1km/h 59% 0.00in /  0mm
13:44 82.1 °F /  27.8 °C 67.3 °F /  19.6 °C 30.07in /  1018.2hPa WSW 5.0mph /  8km/h 9.0mph /  14.5km/h 61% 0.00in /  0mm
13:49 82.0 °F /  27.8 °C 66.3 °F /  19.1 °C 30.07in /  1018.2hPa WSW 7.0mph /  11.3km/h 10.0mph /  16.1km/h 59% 0.00in /  0mm
13:54 82.0 °F /  27.8 °C 66.3 °F /  19.1 °C 30.06in /  1017.8hPa SW 4.0mph /  6.4km/h 9.0mph /  14.5km/h 59% 0.00in /  0mm
13:59 82.1 °F /  27.8 °C 65.4 °F /  18.6 °C 30.07in /  1018.2hPa WSW 7.0mph /  11.3km/h 10.0mph /  16.1km/h 57% 0.00in /  0mm
14:04 82.0 °F /  27.8 °C 66.3 °F /  19.1 °C 30.06in /  1017.8hPa SW 4.0mph /  6.4km/h 10.0mph /  16.1km/h 59% 0.00in /  0mm
14:09 82.6 °F /  28.1 °C 67.3 °F /  19.6 °C 30.06in /  1017.8hPa SW 5.0mph /  8km/h 10.0mph /  16.1km/h 60% 0.00in /  0mm
14:14 82.5 °F /  28.1 °C 66.2 °F /  19 °C 30.06in /  1017.8hPa SW 5.0mph /  8km/h 9.0mph /  14.5km/h 58% 0.00in /  0mm
14:19 82.6 °F /  28.1 °C 65.8 °F /  18.8 °C 30.06in /  1017.8hPa SW 5.0mph /  8km/h 9.0mph /  14.5km/h 57% 0.00in /  0mm
14:24 82.6 °F /  28.1 °C 66.8 °F /  19.3 °C 30.06in /  1017.8hPa SW 6.0mph /  9.7km/h 10.0mph /  16.1km/h 59% 0.00in /  0mm
14:29 82.7 °F /  28.2 °C 66.4 °F /  19.1 °C 30.06in /  1017.8hPa SW 5.0mph /  8km/h 10.0mph /  16.1km/h 58% 0.00in /  0mm
14:35 83.0 °F /  28.3 °C 66.2 °F /  19 °C 30.06in /  1017.8hPa WSW 4.0mph /  6.4km/h 10.0mph /  16.1km/h 57% 0.00in /  0mm
14:39 82.8 °F /  28.2 °C 66.5 °F /  19.2 °C 30.06in /  1017.8hPa SW 7.0mph /  11.3km/h 7.0mph /  11.3km/h 58% 0.00in /  0mm
14:44 82.9 °F /  28.3 °C 67.6 °F /  19.8 °C 30.06in /  1017.8hPa SW 3.0mph /  4.8km/h 8.0mph /  12.9km/h 60% 0.00in /  0mm
14:49 83.3 °F /  28.5 °C 67.0 °F /  19.4 °C 30.06in /  1017.8hPa West 3.0mph /  4.8km/h 7.0mph /  11.3km/h 58% 0.00in /  0mm
14:54 83.3 °F /  28.5 °C 68.0 °F /  20 °C 30.06in /  1017.8hPa WNW 3.0mph /  4.8km/h 9.0mph /  14.5km/h 60% 0.00in /  0mm
14:59 83.6 °F /  28.7 °C 66.2 °F /  19 °C 30.06in /  1017.8hPa SW 6.0mph /  9.7km/h 6.0mph /  9.7km/h 56% 0.00in /  0mm
15:04 83.8 °F /  28.8 °C 65.9 °F /  18.8 °C 30.06in /  1017.8hPa SW 7.0mph /  11.3km/h 9.0mph /  14.5km/h 55% 0.00in /  0mm
15:09 84.2 °F /  29 °C 65.2 °F /  18.4 °C 30.06in /  1017.8hPa NNW 4.0mph /  6.4km/h 7.0mph /  11.3km/h 53% 0.00in /  0mm
15:14 85.1 °F /  29.5 °C 63.8 °F /  17.7 °C 30.06in /  1017.8hPa NW 3.0mph /  4.8km/h 8.0mph /  12.9km/h 49% 0.00in /  0mm
15:19 85.4 °F /  29.7 °C 64.1 °F /  17.8 °C 30.06in /  1017.8hPa NW 4.0mph /  6.4km/h 8.0mph /  12.9km/h 49% 0.00in /  0mm
15:24 85.4 °F /  29.7 °C 62.9 °F /  17.2 °C 30.06in /  1017.8hPa NW 4.0mph /  6.4km/h 9.0mph /  14.5km/h 47% 0.00in /  0mm
15:29 85.8 °F /  29.9 °C 62.6 °F /  17 °C 30.06in /  1017.8hPa NW 3.0mph /  4.8km/h 9.0mph /  14.5km/h 46% 0.00in /  0mm
15:35 85.1 °F /  29.5 °C 63.2 °F /  17.3 °C 30.06in /  1017.8hPa NNW 4.0mph /  6.4km/h 8.0mph /  12.9km/h 48% 0.00in /  0mm
15:40 85.0 °F /  29.4 °C 61.9 °F /  16.6 °C 30.06in /  1017.8hPa North 4.0mph /  6.4km/h 8.0mph /  12.9km/h 46% 0.00in /  0mm
15:44 85.0 °F /  29.4 °C 63.1 °F /  17.3 °C 30.06in /  1017.8hPa North 3.0mph /  4.8km/h 10.0mph /  16.1km/h 48% 0.00in /  0mm
15:49 85.4 °F /  29.7 °C 64.1 °F /  17.8 °C 30.06in /  1017.8hPa NW 2.0mph /  3.2km/h 9.0mph /  14.5km/h 49% 0.00in /  0mm
15:54 85.7 °F /  29.8 °C 63.8 °F /  17.7 °C 30.06in /  1017.8hPa WNW 2.0mph /  3.2km/h 8.0mph /  12.9km/h 48% 0.00in /  0mm
15:59 85.7 °F /  29.8 °C 62.5 °F /  16.9 °C 30.06in /  1017.8hPa NNW 5.0mph /  8km/h 9.0mph /  14.5km/h 46% 0.00in /  0mm
16:04 85.5 °F /  29.7 °C 61.1 °F /  16.2 °C 30.06in /  1017.8hPa NW 3.0mph /  4.8km/h 10.0mph /  16.1km/h 44% 0.00in /  0mm
16:09 85.7 °F /  29.8 °C 62.5 °F /  16.9 °C 30.05in /  1017.5hPa WNW 4.0mph /  6.4km/h 8.0mph /  12.9km/h 46% 0.00in /  0mm
16:14 85.7 °F /  29.8 °C 61.3 °F /  16.3 °C 30.06in /  1017.8hPa NW 4.0mph /  6.4km/h 9.0mph /  14.5km/h 44% 0.00in /  0mm
16:19 85.4 °F /  29.7 °C 62.3 °F /  16.8 °C 30.05in /  1017.5hPa NW 4.0mph /  6.4km/h 9.0mph /  14.5km/h 46% 0.00in /  0mm
16:24 85.9 °F /  29.9 °C 62.7 °F /  17.1 °C 30.05in /  1017.5hPa NNW 2.0mph /  3.2km/h 8.0mph /  12.9km/h 46% 0.00in /  0mm
16:30 85.5 °F /  29.7 °C 61.1 °F /  16.2 °C 30.05in /  1017.5hPa North 2.0mph /  3.2km/h 8.0mph /  12.9km/h 44% 0.00in /  0mm
16:34 85.7 °F /  29.8 °C 61.3 °F /  16.3 °C 30.05in /  1017.5hPa NNW 2.0mph /  3.2km/h 8.0mph /  12.9km/h 44% 0.00in /  0mm
16:39 85.7 °F /  29.8 °C 60.6 °F /  15.9 °C 30.05in /  1017.5hPa NNW 3.0mph /  4.8km/h 6.0mph /  9.7km/h 43% 0.00in /  0mm
16:45 84.5 °F /  29.2 °C 60.2 °F /  15.7 °C 30.05in /  1017.5hPa NNW 2.0mph /  3.2km/h 9.0mph /  14.5km/h 44% 0.00in /  0mm
16:49 84.6 °F /  29.2 °C 60.9 °F /  16.1 °C 30.05in /  1017.5hPa NNW 3.0mph /  4.8km/h 9.0mph /  14.5km/h 45% 0.00in /  0mm
16:54 85.2 °F /  29.6 °C 61.5 °F /  16.4 °C 30.05in /  1017.5hPa West 2.0mph /  3.2km/h 6.0mph /  9.7km/h 45% 0.00in /  0mm
16:59 85.3 °F /  29.6 °C 61.6 °F /  16.4 °C 30.05in /  1017.5hPa West 6.0mph /  9.7km/h 7.0mph /  11.3km/h 45% 0.00in /  0mm
17:04 85.8 °F /  29.9 °C 62.0 °F /  16.7 °C 30.05in /  1017.5hPa WSW 4.0mph /  6.4km/h 7.0mph /  11.3km/h 45% 0.00in /  0mm
17:09 85.6 °F /  29.8 °C 62.4 °F /  16.9 °C 30.05in /  1017.5hPa NNW 3.0mph /  4.8km/h 7.0mph /  11.3km/h 46% 0.00in /  0mm
17:14 85.3 °F /  29.6 °C 60.9 °F /  16.1 °C 30.05in /  1017.5hPa NW 3.0mph /  4.8km/h 9.0mph /  14.5km/h 44% 0.00in /  0mm
17:19 84.8 °F /  29.3 °C 59.8 °F /  15.4 °C 30.05in /  1017.5hPa NW 4.0mph /  6.4km/h 9.0mph /  14.5km/h 43% 0.00in /  0mm
17:24 85.0 °F /  29.4 °C 60.0 °F /  15.6 °C 30.05in /  1017.5hPa NW 4.0mph /  6.4km/h 8.0mph /  12.9km/h 43% 0.00in /  0mm
17:29 84.7 °F /  29.3 °C 61.0 °F /  16.1 °C 30.05in /  1017.5hPa NW 4.0mph /  6.4km/h 9.0mph /  14.5km/h 45% 0.00in /  0mm
17:35 84.7 °F /  29.3 °C 59.1 °F /  15.1 °C 30.05in /  1017.5hPa NW 4.0mph /  6.4km/h 9.0mph /  14.5km/h 42% 0.00in /  0mm
17:39 84.8 °F /  29.3 °C 59.8 °F /  15.4 °C 30.05in /  1017.5hPa SW 8.0mph /  12.9km/h 9.0mph /  14.5km/h 43% 0.00in /  0mm
17:45 83.0 °F /  28.3 °C 65.7 °F /  18.7 °C 30.05in /  1017.5hPa WSW 2.0mph /  3.2km/h 10.0mph /  16.1km/h 56% 0.00in /  0mm
17:49 81.9 °F /  27.7 °C 66.2 °F /  19 °C 30.05in /  1017.5hPa WSW 5.0mph /  8km/h 10.0mph /  16.1km/h 59% 0.00in /  0mm
17:54 81.8 °F /  27.7 °C 66.1 °F /  18.9 °C 30.05in /  1017.5hPa WSW 4.0mph /  6.4km/h 9.0mph /  14.5km/h 59% 0.00in /  0mm
17:59 81.4 °F /  27.4 °C 66.2 °F /  19 °C 30.05in /  1017.5hPa West 4.0mph /  6.4km/h 10.0mph /  16.1km/h 60% 0.00in /  0mm
18:04 80.9 °F /  27.2 °C 67.1 °F /  19.5 °C 30.05in /  1017.5hPa West 4.0mph /  6.4km/h 7.0mph /  11.3km/h 63% 0.00in /  0mm
18:09 80.5 °F /  26.9 °C 66.3 °F /  19.1 °C 30.05in /  1017.5hPa WSW 2.0mph /  3.2km/h 10.0mph /  16.1km/h 62% 0.00in /  0mm
18:14 80.2 °F /  26.8 °C 66.5 °F /  19.2 °C 30.05in /  1017.5hPa West 5.0mph /  8km/h 9.0mph /  14.5km/h 63% 0.00in /  0mm
18:19 79.8 °F /  26.6 °C 66.5 °F /  19.2 °C 30.05in /  1017.5hPa WSW 4.0mph /  6.4km/h 9.0mph /  14.5km/h 64% 0.00in /  0mm
18:24 79.4 °F /  26.3 °C 66.6 °F /  19.2 °C 30.05in /  1017.5hPa WSW 4.0mph /  6.4km/h 9.0mph /  14.5km/h 65% 0.00in /  0mm
18:29 79.2 °F /  26.2 °C 66.9 °F /  19.4 °C 30.05in /  1017.5hPa SW 4.0mph /  6.4km/h 9.0mph /  14.5km/h 66% 0.00in /  0mm
18:34 78.5 °F /  25.8 °C 66.6 °F /  19.2 °C 30.05in /  1017.5hPa SSW 3.0mph /  4.8km/h 8.0mph /  12.9km/h 67% 0.00in /  0mm
18:40 78.8 °F /  26 °C 67.8 °F /  19.9 °C 30.05in /  1017.5hPa WSW 2.0mph /  3.2km/h 5.0mph /  8km/h 69% 0.00in /  0mm
18:44 78.8 °F /  26 °C 67.3 °F /  19.6 °C 30.05in /  1017.5hPa South 4.0mph /  6.4km/h 8.0mph /  12.9km/h 68% 0.00in /  0mm
18:49 78.4 °F /  25.8 °C 66.5 °F /  19.2 °C 30.05in /  1017.5hPa WSW 4.0mph /  6.4km/h 10.0mph /  16.1km/h 67% 0.00in /  0mm
18:54 78.0 °F /  25.6 °C 66.6 °F /  19.2 °C 30.05in /  1017.5hPa WSW 5.0mph /  8km/h 10.0mph /  16.1km/h 68% 0.00in /  0mm
18:59 77.8 °F /  25.4 °C 66.8 °F /  19.3 °C 30.05in /  1017.5hPa WSW 5.0mph /  8km/h 10.0mph /  16.1km/h 69% 0.00in /  0mm
19:04 77.7 °F /  25.4 °C 66.7 °F /  19.3 °C 30.05in /  1017.5hPa West 5.0mph /  8km/h 8.0mph /  12.9km/h 69% 0.00in /  0mm
19:09 77.6 °F /  25.3 °C 66.6 °F /  19.2 °C 30.05in /  1017.5hPa SW 4.0mph /  6.4km/h 8.0mph /  12.9km/h 69% 0.00in /  0mm
19:14 77.6 °F /  25.3 °C 66.6 °F /  19.2 °C 30.06in /  1017.8hPa SW 4.0mph /  6.4km/h 8.0mph /  12.9km/h 69% 0.00in /  0mm
19:19 77.7 °F /  25.4 °C 66.7 °F /  19.3 °C 30.05in /  1017.5hPa WSW 2.0mph /  3.2km/h 7.0mph /  11.3km/h 69% 0.00in /  0mm
19:24 77.5 °F /  25.3 °C 66.9 °F /  19.4 °C 30.06in /  1017.8hPa West 4.0mph /  6.4km/h 8.0mph /  12.9km/h 70% 0.00in /  0mm
19:29 77.4 °F /  25.2 °C 66.8 °F /  19.3 °C 30.06in /  1017.8hPa West 3.0mph /  4.8km/h 8.0mph /  12.9km/h 70% 0.00in /  0mm
19:34 77.3 °F /  25.2 °C 67.2 °F /  19.6 °C 30.06in /  1017.8hPa WSW 2.0mph /  3.2km/h 8.0mph /  12.9km/h 71% 0.00in /  0mm
19:39 76.9 °F /  24.9 °C 67.2 °F /  19.6 °C 30.06in /  1017.8hPa SSW 3.0mph /  4.8km/h 9.0mph /  14.5km/h 72% 0.00in /  0mm
19:44 76.6 °F /  24.8 °C 66.9 °F /  19.4 °C 30.06in /  1017.8hPa WSW 4.0mph /  6.4km/h 7.0mph /  11.3km/h 72% 0.00in /  0mm
19:49 76.4 °F /  24.7 °C 66.7 °F /  19.3 °C 30.06in /  1017.8hPa WSW 4.0mph /  6.4km/h 9.0mph /  14.5km/h 72% 0.00in /  0mm
19:54 76.3 °F /  24.6 °C 67.0 °F /  19.4 °C 30.06in /  1017.8hPa WSW 3.0mph /  4.8km/h 9.0mph /  14.5km/h 73% 0.00in /  0mm
19:59 76.1 °F /  24.5 °C 66.8 °F /  19.3 °C 30.06in /  1017.8hPa WSW 3.0mph /  4.8km/h 7.0mph /  11.3km/h 73% 0.00in /  0mm
20:04 75.8 °F /  24.3 °C 66.9 °F /  19.4 °C 30.06in /  1017.8hPa SW 3.0mph /  4.8km/h 7.0mph /  11.3km/h 74% 0.00in /  0mm
20:09 75.5 °F /  24.2 °C 66.6 °F /  19.2 °C 30.06in /  1017.8hPa SW 3.0mph /  4.8km/h 7.0mph /  11.3km/h 74% 0.00in /  0mm
20:14 75.2 °F /  24 °C 66.7 °F /  19.3 °C 30.06in /  1017.8hPa WSW 3.0mph /  4.8km/h 6.0mph /  9.7km/h 75% 0.00in /  0mm
20:19 74.9 °F /  23.8 °C 66.4 °F /  19.1 °C 30.06in /  1017.8hPa SW 3.0mph /  4.8km/h 6.0mph /  9.7km/h 75% 0.00in /  0mm
20:24 74.7 °F /  23.7 °C 66.6 °F /  19.2 °C 30.06in /  1017.8hPa WSW 2.0mph /  3.2km/h 7.0mph /  11.3km/h 76% 0.00in /  0mm
20:29 74.5 °F /  23.6 °C 66.4 °F /  19.1 °C 30.06in /  1017.8hPa SW 1.0mph /  1.6km/h 4.0mph /  6.4km/h 76% 0.00in /  0mm
20:34 74.3 °F /  23.5 °C 66.6 °F /  19.2 °C 30.06in /  1017.8hPa WSW 2.0mph /  3.2km/h 4.0mph /  6.4km/h 77% 0.00in /  0mm
20:39 74.1 °F /  23.4 °C 66.4 °F /  19.1 °C 30.07in /  1018.2hPa WSW 4.0mph /  6.4km/h 5.0mph /  8km/h 77% 0.00in /  0mm
20:44 74.0 °F /  23.3 °C 66.7 °F /  19.3 °C 30.07in /  1018.2hPa WSW 1.0mph /  1.6km/h 5.0mph /  8km/h 78% 0.00in /  0mm
20:49 73.9 °F /  23.3 °C 66.6 °F /  19.2 °C 30.06in /  1017.8hPa WSW 3.0mph /  4.8km/h 6.0mph /  9.7km/h 78% 0.00in /  0mm
20:54 73.8 °F /  23.2 °C 66.5 °F /  19.2 °C 30.06in /  1017.8hPa WSW 3.0mph /  4.8km/h 6.0mph /  9.7km/h 78% 0.00in /  0mm
20:59 73.7 °F /  23.2 °C 66.4 °F /  19.1 °C 30.07in /  1018.2hPa WSW 2.0mph /  3.2km/h 5.0mph /  8km/h 78% 0.00in /  0mm
21:04 73.7 °F /  23.2 °C 66.8 °F /  19.3 °C 30.06in /  1017.8hPa WSW 2.0mph /  3.2km/h 5.0mph /  8km/h 79% 0.00in /  0mm
21:09 73.5 °F /  23.1 °C 66.6 °F /  19.2 °C 30.07in /  1018.2hPa SW 2.0mph /  3.2km/h 6.0mph /  9.7km/h 79% 0.00in /  0mm
21:14 73.3 °F /  22.9 °C 66.8 °F /  19.3 °C 30.07in /  1018.2hPa SW 3.0mph /  4.8km/h 5.0mph /  8km/h 80% 0.00in /  0mm
21:19 73.2 °F /  22.9 °C 67.0 °F /  19.4 °C 30.07in /  1018.2hPa SW 2.0mph /  3.2km/h 5.0mph /  8km/h 81% 0.00in /  0mm
21:24 73.2 °F /  22.9 °C 67.0 °F /  19.4 °C 30.07in /  1018.2hPa SW 2.0mph /  3.2km/h 4.0mph /  6.4km/h 81% 0.00in /  0mm
21:29 73.0 °F /  22.8 °C 67.2 °F /  19.6 °C 30.07in /  1018.2hPa Calm   4.0mph /  6.4km/h 82% 0.00in /  0mm
21:34 73.0 °F /  22.8 °C 67.5 °F /  19.7 °C 30.07in /  1018.2hPa SW 2.0mph /  3.2km/h 2.0mph /  3.2km/h 83% 0.00in /  0mm
21:39 72.8 °F /  22.7 °C 67.3 °F /  19.6 °C 30.07in /  1018.2hPa SW 1.0mph /  1.6km/h 4.0mph /  6.4km/h 83% 0.00in /  0mm
21:44 72.8 °F /  22.7 °C 67.3 °F /  19.6 °C 30.07in /  1018.2hPa WSW 3.0mph /  4.8km/h 5.0mph /  8km/h 83% 0.00in /  0mm
21:49 72.7 °F /  22.6 °C 67.6 °F /  19.8 °C 30.07in /  1018.2hPa SW 1.0mph /  1.6km/h 5.0mph /  8km/h 84% 0.00in /  0mm
21:54 72.7 °F /  22.6 °C 67.6 °F /  19.8 °C 30.07in /  1018.2hPa WSW 1.0mph /  1.6km/h 4.0mph /  6.4km/h 84% 0.00in /  0mm
21:59 72.7 °F /  22.6 °C 67.6 °F /  19.8 °C 30.07in /  1018.2hPa WSW 1.0mph /  1.6km/h 5.0mph /  8km/h 84% 0.00in /  0mm
22:04 72.6 °F /  22.6 °C 67.5 °F /  19.7 °C 30.07in /  1018.2hPa WSW 1.0mph /  1.6km/h 5.0mph /  8km/h 84% 0.00in /  0mm
22:09 72.5 °F /  22.5 °C 67.4 °F /  19.7 °C 30.08in /  1018.5hPa Calm   3.0mph /  4.8km/h 84% 0.00in /  0mm
22:14 72.3 °F /  22.4 °C 67.5 °F /  19.7 °C 30.08in /  1018.5hPa Calm   3.0mph /  4.8km/h 85% 0.00in /  0mm
22:19 72.2 °F /  22.3 °C 67.4 °F /  19.7 °C 30.07in /  1018.2hPa WSW 1.0mph /  1.6km/h 2.0mph /  3.2km/h 85% 0.00in /  0mm
22:24 72.1 °F /  22.3 °C 67.0 °F /  19.4 °C 30.08in /  1018.5hPa Calm   2.0mph /  3.2km/h 84% 0.00in /  0mm
22:29 72.2 °F /  22.3 °C 65.7 °F /  18.7 °C 30.08in /  1018.5hPa Calm   6.0mph /  9.7km/h 80% 0.00in /  0mm
22:34 72.5 °F /  22.5 °C 65.6 °F /  18.7 °C 30.08in /  1018.5hPa WSW 1.0mph /  1.6km/h 3.0mph /  4.8km/h 79% 0.00in /  0mm
22:39 72.5 °F /  22.5 °C 65.6 °F /  18.7 °C 30.08in /  1018.5hPa Calm   2.0mph /  3.2km/h 79% 0.00in /  0mm
22:44 72.3 °F /  22.4 °C 65.8 °F /  18.8 °C 30.08in /  1018.5hPa Calm     80% 0.00in /  0mm
22:49 72.1 °F /  22.3 °C 66.3 °F /  19.1 °C 30.08in /  1018.5hPa Calm     82% 0.00in /  0mm
22:54 71.9 °F /  22.2 °C 66.5 °F /  19.2 °C 30.08in /  1018.5hPa Calm     83% 0.00in /  0mm
22:59 71.5 °F /  21.9 °C 66.4 °F /  19.1 °C 30.08in /  1018.5hPa WSW 2.0mph /  3.2km/h 3.0mph /  4.8km/h 84% 0.00in /  0mm
23:04 71.4 °F /  21.9 °C 65.6 °F /  18.7 °C 30.08in /  1018.5hPa Calm   3.0mph /  4.8km/h 82% 0.00in /  0mm
23:09 71.3 °F /  21.8 °C 64.8 °F /  18.2 °C 30.08in /  1018.5hPa West 1.0mph /  1.6km/h 4.0mph /  6.4km/h 80% 0.00in /  0mm
23:14 71.4 °F /  21.9 °C 63.8 °F /  17.7 °C 30.08in /  1018.5hPa Calm   4.0mph /  6.4km/h 77% 0.00in /  0mm
23:19 71.5 °F /  21.9 °C 62.4 °F /  16.9 °C 30.08in /  1018.5hPa Calm     73% 0.00in /  0mm
23:24 71.7 °F /  22.1 °C 61.8 °F /  16.6 °C 30.08in /  1018.5hPa Calm     71% 0.00in /  0mm
23:29 71.5 °F /  21.9 °C 61.2 °F /  16.2 °C 30.08in /  1018.5hPa Calm     70% 0.00in /  0mm
23:34 71.2 °F /  21.8 °C 61.7 °F /  16.5 °C 30.09in /  1018.8hPa Calm     72% 0.00in /  0mm
23:39 70.6 °F /  21.4 °C 61.5 °F /  16.4 °C 30.09in /  1018.8hPa WNW 1.0mph /  1.6km/h 2.0mph /  3.2km/h 73% 0.00in /  0mm
23:44 70.4 °F /  21.3 °C 60.9 °F /  16.1 °C 30.08in /  1018.5hPa Calm   1.0mph /  1.6km/h 72% 0.00in /  0mm
23:49 70.1 °F /  21.2 °C 60.7 °F /  15.9 °C 30.09in /  1018.8hPa Calm   1.0mph /  1.6km/h 72% 0.00in /  0mm
23:54 69.8 °F /  21 °C 59.6 °F /  15.3 °C 30.08in /  1018.5hPa Calm   1.0mph /  1.6km/h 70% 0.00in /  0mm
23:59 69.7 °F /  20.9 °C 59.5 °F /  15.3 °C 30.08in /  1018.5hPa Calm   1.0mph /  1.6km/h 70% 0.00in /  0mm
Buffalo, New York, USA
Compliments of Weather Underground - 2.5 mb